createdAt,value
2022-08-05T00:00:20.609Z,72.78
2022-08-05T00:01:28.505Z,73.18
2022-08-05T00:02:20.692Z,73.37
2022-08-05T00:03:20.627Z,73.07
2022-08-05T00:04:20.637Z,73.67
2022-08-05T00:06:03.030Z,73.77
2022-08-05T00:06:30.667Z,73.37
2022-08-05T00:07:27.510Z,72.38
2022-08-05T00:08:34.958Z,72.58
2022-08-05T00:09:20.660Z,72.58
2022-08-05T00:10:20.673Z,72.22
2022-08-05T00:11:30.230Z,71.92
2022-08-05T00:12:20.673Z,71.98
2022-08-05T00:13:20.682Z,71.50
2022-08-05T00:14:20.687Z,71.89
2022-08-05T00:15:58.145Z,71.59
2022-08-05T00:16:36.174Z,71.59
2022-08-05T00:17:20.803Z,71.69
2022-08-05T00:18:21.567Z,71.39
2022-08-05T00:19:22.282Z,72.09
2022-08-05T00:20:20.719Z,71.39
2022-08-05T00:21:20.725Z,71.36
2022-08-05T00:22:20.725Z,71.00
2022-08-05T00:23:31.087Z,71.20
2022-08-05T00:24:24.917Z,71.10
2022-08-05T00:25:20.748Z,70.87
2022-08-05T00:26:20.750Z,70.67
2022-08-05T00:27:20.760Z,69.88
2022-08-05T00:28:29.452Z,69.78
2022-08-05T00:29:22.592Z,70.87
2022-08-05T00:30:20.774Z,70.28
2022-08-05T00:31:53.571Z,69.88
2022-08-05T00:32:20.798Z,70.28
2022-08-05T00:34:53.479Z,70.28
2022-08-05T00:34:55.858Z,70.57
2022-08-05T00:35:20.796Z,70.37
2022-08-05T00:37:11.270Z,70.28
2022-08-05T00:37:20.811Z,70.28
2022-08-05T00:38:28.788Z,70.37
2022-08-05T00:39:20.848Z,69.38
2022-08-05T00:40:28.082Z,69.98
2022-08-05T00:41:20.826Z,70.47
2022-08-05T00:42:31.521Z,69.98
2022-08-05T00:43:20.839Z,69.98
2022-08-05T00:44:20.993Z,69.68
2022-08-05T00:45:38.155Z,69.49
2022-08-05T00:46:20.854Z,69.68
2022-08-05T00:47:20.857Z,69.88
2022-08-05T00:48:27.549Z,69.59
2022-08-05T00:49:20.868Z,69.78
2022-08-05T00:50:21.147Z,69.49
2022-08-05T00:51:50.559Z,70.08
2022-08-05T00:52:28.287Z,69.49
2022-08-05T00:53:59.974Z,69.49
2022-08-05T00:54:20.900Z,69.19
2022-08-05T00:55:20.899Z,69.38
2022-08-05T00:56:22.817Z,68.99
2022-08-05T00:57:21.377Z,69.88
2022-08-05T00:58:20.914Z,69.29
2022-08-05T00:59:20.918Z,69.38
2022-08-05T01:00:21.953Z,69.29
2022-08-05T01:01:42.927Z,69.78
2022-08-05T01:02:20.935Z,69.68
2022-08-05T01:03:22.643Z,68.99
2022-08-05T01:04:26.727Z,69.88
2022-08-05T01:05:20.949Z,70.28
2022-08-05T01:06:20.953Z,70.87
2022-08-05T01:07:20.958Z,69.68
2022-08-05T01:08:41.409Z,69.88
2022-08-05T01:09:20.969Z,69.98
2022-08-05T01:10:20.973Z,69.78
2022-08-05T01:11:22.709Z,69.88
2022-08-05T01:12:20.991Z,69.88
2022-08-05T01:13:27.249Z,69.88
2022-08-05T01:14:28.123Z,69.88
2022-08-05T01:15:36.275Z,70.18
2022-08-05T01:16:26.116Z,69.92
2022-08-05T01:17:21.227Z,69.38
2022-08-05T01:18:21.015Z,69.49
2022-08-05T01:19:21.013Z,69.49
2022-08-05T01:20:22.323Z,69.88
2022-08-05T01:21:22.802Z,70.57
2022-08-05T01:22:24.060Z,70.57
2022-08-05T01:23:23.313Z,71.59
2022-08-05T01:24:21.045Z,71.59
2022-08-05T01:25:21.047Z,71.00
2022-08-05T01:26:21.055Z,71.39
2022-08-05T01:27:24.351Z,72.61
2022-08-05T01:28:21.064Z,72.61
2022-08-05T01:29:23.203Z,72.61
2022-08-05T01:30:21.071Z,73.01
2022-08-05T01:31:21.073Z,72.52
2022-08-05T01:32:21.087Z,74.49
2022-08-05T01:33:21.085Z,73.94
2022-08-05T01:34:21.089Z,73.94
2022-08-05T01:35:50.607Z,74.63
2022-08-05T01:36:21.192Z,74.93
2022-08-05T01:37:25.123Z,74.27
2022-08-05T01:38:27.006Z,75.75
2022-08-05T01:39:45.601Z,74.46
2022-08-05T01:40:21.131Z,74.76
2022-08-05T01:41:21.697Z,75.45
2022-08-05T01:42:21.130Z,75.65
2022-08-05T01:43:22.298Z,75.75
2022-08-05T01:44:21.140Z,75.95
2022-08-05T01:45:21.145Z,76.34
2022-08-05T01:46:43.031Z,76.05
2022-08-05T01:47:21.563Z,76.98
2022-08-05T01:48:21.158Z,77.08
2022-08-05T01:49:24.299Z,77.04
2022-08-05T01:50:28.663Z,77.14
2022-08-05T01:51:21.174Z,76.87
2022-08-05T01:52:21.180Z,75.69
2022-08-05T01:53:54.381Z,76.18
2022-08-05T01:54:25.707Z,75.79
2022-08-05T01:55:21.190Z,76.98
2022-08-05T01:58:10.982Z,77.08
2022-08-05T01:58:11.868Z,77.37
2022-08-05T01:58:40.268Z,77.17
2022-08-05T01:59:21.211Z,77.17
2022-08-05T02:00:21.218Z,77.11
2022-08-05T02:01:24.553Z,77.21
2022-08-05T02:02:28.521Z,77.51
2022-08-05T02:03:24.350Z,77.11
2022-08-05T02:04:21.241Z,77.31
2022-08-05T02:05:23.338Z,77.45
2022-08-05T02:06:37.707Z,77.61
2022-08-05T02:07:22.249Z,77.41
2022-08-05T02:08:30.877Z,77.05
2022-08-05T02:09:21.258Z,77.74
2022-08-05T02:10:23.674Z,77.64
2022-08-05T02:11:23.863Z,77.34
2022-08-05T02:12:21.274Z,77.45
2022-08-05T02:13:21.968Z,77.74
2022-08-05T02:14:21.284Z,78.14
2022-08-05T02:15:21.290Z,78.04
2022-08-05T02:16:22.004Z,78.14
2022-08-05T02:18:28.598Z,78.38
2022-08-05T02:18:30.926Z,78.47
2022-08-05T02:19:21.302Z,78.28
2022-08-05T02:20:21.307Z,78.17
2022-08-05T02:21:21.313Z,78.38
2022-08-05T02:22:26.775Z,78.47
2022-08-05T02:23:21.320Z,78.67
2022-08-05T02:24:23.448Z,78.38
2022-08-05T02:25:21.721Z,78.08
2022-08-05T02:26:21.782Z,77.28
2022-08-05T02:27:21.738Z,78.17
2022-08-05T02:28:28.864Z,79.27
2022-08-05T02:29:26.078Z,79.27
2022-08-05T02:30:21.355Z,79.17
2022-08-05T02:31:21.453Z,78.67
2022-08-05T02:32:29.194Z,78.77
2022-08-05T02:33:24.478Z,78.97
2022-08-05T02:34:21.369Z,78.02
2022-08-05T02:35:27.937Z,78.17
2022-08-05T02:36:21.382Z,79.07
2022-08-05T02:37:21.777Z,78.57
2022-08-05T02:38:21.389Z,78.67
2022-08-05T02:39:21.739Z,78.87
2022-08-05T02:40:21.400Z,78.77
2022-08-05T02:41:21.402Z,79.30
2022-08-05T02:42:25.842Z,79.80
2022-08-05T02:43:21.419Z,79.76
2022-08-05T02:44:21.412Z,79.17
2022-08-05T02:45:21.422Z,79.70
2022-08-05T02:46:27.391Z,79.40
2022-08-05T02:47:21.669Z,79.80
2022-08-05T02:48:21.432Z,80.00
2022-08-05T02:49:21.912Z,80.19
2022-08-05T02:50:21.438Z,79.80
2022-08-05T02:51:28.442Z,80.30
2022-08-05T02:52:29.904Z,80.10
2022-08-05T02:53:21.450Z,80.19
2022-08-05T02:54:36.153Z,79.80
2022-08-05T02:55:54.207Z,79.21
2022-08-05T02:56:21.466Z,79.40
2022-08-05T02:58:10.072Z,79.70
2022-08-05T02:58:21.902Z,79.30
2022-08-05T02:59:21.477Z,79.50
2022-08-05T03:00:21.484Z,79.70
2022-08-05T03:01:21.558Z,80.10
2022-08-05T03:02:21.491Z,79.80
2022-08-05T03:03:23.582Z,80.10
2022-08-05T03:04:23.103Z,80.19
2022-08-05T03:05:21.817Z,80.19
2022-08-05T03:06:54.000Z,80.19
2022-08-05T03:07:40.385Z,80.00
2022-08-05T03:08:26.901Z,79.70
2022-08-05T03:09:36.370Z,79.30
2022-08-05T03:10:24.410Z,79.40
2022-08-05T03:11:55.218Z,79.70
2022-08-05T03:12:21.529Z,79.30
2022-08-05T03:13:21.533Z,80.79
2022-08-05T03:14:21.545Z,80.79
2022-08-05T03:15:21.545Z,80.79
2022-08-05T03:16:21.551Z,80.89
2022-08-05T03:17:22.031Z,81.29
2022-08-05T03:18:24.659Z,80.99
2022-08-05T03:19:34.078Z,81.73
2022-08-05T03:20:21.560Z,81.62
2022-08-05T03:21:21.566Z,81.52
2022-08-05T03:22:32.191Z,81.73
2022-08-05T03:23:24.157Z,81.62
2022-08-05T03:24:29.800Z,81.43
2022-08-05T03:25:32.402Z,81.23
2022-08-05T03:26:32.299Z,81.33
2022-08-05T03:27:22.014Z,81.52
2022-08-05T03:28:21.595Z,81.13
2022-08-05T03:29:21.597Z,81.52
2022-08-05T03:30:21.605Z,81.43
2022-08-05T03:31:57.150Z,81.33
2022-08-05T03:32:21.611Z,81.03
2022-08-05T03:33:21.855Z,81.43
2022-08-05T03:34:24.376Z,81.52
2022-08-05T03:35:21.627Z,81.43
2022-08-05T03:36:30.032Z,81.33
2022-08-05T03:37:22.585Z,81.62
2022-08-05T03:38:32.611Z,81.62
2022-08-05T03:39:27.153Z,81.62
2022-08-05T03:40:24.208Z,81.56
2022-08-05T03:41:23.671Z,81.43
2022-08-05T03:42:21.653Z,82.12
2022-08-05T03:44:09.236Z,81.62
2022-08-05T03:44:21.667Z,82.12
2022-08-05T03:45:23.389Z,81.82
2022-08-05T03:46:21.664Z,81.67
2022-08-05T03:47:21.973Z,81.33
2022-08-05T03:48:21.982Z,82.42
2022-08-05T03:49:24.261Z,81.96
2022-08-05T03:50:21.684Z,81.23
2022-08-05T03:52:36.992Z,81.33
2022-08-05T03:52:38.873Z,81.62
2022-08-05T03:55:49.827Z,82.32
2022-08-05T03:55:52.579Z,82.32
2022-08-05T03:56:03.681Z,81.82
2022-08-05T03:56:30.638Z,83.11
2022-08-05T03:57:21.708Z,82.86
2022-08-05T03:58:21.714Z,82.22
2022-08-05T03:59:21.717Z,82.56
2022-08-05T04:00:21.722Z,82.92
2022-08-05T04:01:21.768Z,83.05
2022-08-05T04:02:38.514Z,82.65
2022-08-05T04:03:28.947Z,82.95
2022-08-05T04:04:21.737Z,83.05
2022-08-05T04:05:23.089Z,83.05
2022-08-05T04:06:21.748Z,82.86
2022-08-05T04:07:22.029Z,83.15
2022-08-05T04:08:30.209Z,83.05
2022-08-05T04:09:26.313Z,83.25
2022-08-05T04:10:21.762Z,82.56
2022-08-05T04:11:21.761Z,83.15
2022-08-05T04:12:24.391Z,82.86
2022-08-05T04:13:21.772Z,82.76
2022-08-05T04:14:29.924Z,82.76
2022-08-05T04:15:24.437Z,83.25
2022-08-05T04:16:24.388Z,83.25
2022-08-05T04:17:22.117Z,83.11
2022-08-05T04:18:22.664Z,84.50
2022-08-05T04:19:21.793Z,83.31
2022-08-05T04:20:23.202Z,82.56
2022-08-05T04:22:08.747Z,84.11
2022-08-05T04:22:21.809Z,83.81
2022-08-05T04:24:05.827Z,84.00
2022-08-05T04:24:22.368Z,84.40
2022-08-05T04:25:38.488Z,83.71
2022-08-05T04:26:21.820Z,84.94
2022-08-05T04:30:55.285Z,84.60
2022-08-05T04:31:56.884Z,84.50
2022-08-05T04:32:55.293Z,84.50
2022-08-05T04:34:31.270Z,84.50
2022-08-05T04:34:57.657Z,84.40
2022-08-05T04:36:16.440Z,84.60
2022-08-05T04:36:55.305Z,85.79
2022-08-05T04:38:01.232Z,84.90
2022-08-05T04:38:55.351Z,86.29
2022-08-05T04:39:55.719Z,86.78
2022-08-05T04:40:55.321Z,85.19
2022-08-05T04:48:48.573Z,84.66
2022-08-05T04:50:06.519Z,86.44
2022-08-05T04:51:01.737Z,85.05
2022-08-05T04:51:48.583Z,85.75
2022-08-05T04:52:48.585Z,84.86
2022-08-05T04:53:48.590Z,86.10
2022-08-05T04:54:49.420Z,85.55
2022-08-05T04:56:14.783Z,85.02
2022-08-05T04:56:48.607Z,85.31
2022-08-05T04:57:51.632Z,85.51
2022-08-05T04:58:48.609Z,85.61
2022-08-05T04:59:48.614Z,86.00
2022-08-05T05:00:50.715Z,86.90
2022-08-05T05:02:05.741Z,84.72
2022-08-05T05:02:48.715Z,85.71
2022-08-05T05:03:48.632Z,85.31
2022-08-05T05:04:50.483Z,84.62
2022-08-05T05:06:39.567Z,84.22
2022-08-05T05:06:49.270Z,85.57
2022-08-05T05:07:52.915Z,85.57
2022-08-05T05:08:50.109Z,85.07
2022-08-05T05:09:48.654Z,85.07
2022-08-05T05:10:56.360Z,84.58
2022-08-05T05:11:55.447Z,85.66
2022-08-05T05:12:48.665Z,84.97
2022-08-05T05:13:48.667Z,84.88
2022-08-05T05:14:50.625Z,85.53
2022-08-05T05:15:56.481Z,84.93
2022-08-05T05:16:48.680Z,85.23
2022-08-05T05:17:56.249Z,85.13
2022-08-05T05:19:16.523Z,84.64
2022-08-05T05:19:48.692Z,83.84
2022-08-05T05:20:50.449Z,84.30
2022-08-05T05:21:48.701Z,84.50
2022-08-05T05:22:48.707Z,85.49
2022-08-05T05:24:03.782Z,84.26
2022-08-05T05:24:58.341Z,84.06
2022-08-05T05:25:48.717Z,84.26
2022-08-05T05:26:51.961Z,84.55
2022-08-05T05:27:53.810Z,84.06
2022-08-05T05:28:48.729Z,85.25
2022-08-05T05:30:03.819Z,83.86
2022-08-05T05:30:49.684Z,84.55
2022-08-05T05:31:48.741Z,84.06
2022-08-05T05:32:48.801Z,83.13
2022-08-05T05:33:59.408Z,82.73
2022-08-05T05:34:48.752Z,84.31
2022-08-05T05:35:48.756Z,84.31
2022-08-05T05:36:48.765Z,84.02
2022-08-05T05:38:00.199Z,84.91
2022-08-05T05:38:48.773Z,83.92
2022-08-05T05:39:48.819Z,84.22
2022-08-05T05:40:51.395Z,83.92
2022-08-05T05:41:54.127Z,85.46
2022-08-05T05:42:48.787Z,84.17
2022-08-05T05:43:57.246Z,84.08
2022-08-05T05:44:48.795Z,83.39
2022-08-05T05:45:48.801Z,84.27
2022-08-05T05:46:48.805Z,85.16
2022-08-05T05:48:05.745Z,84.47
2022-08-05T05:48:49.185Z,83.68
2022-08-05T05:49:52.624Z,85.26
2022-08-05T05:50:48.822Z,84.47
2022-08-05T05:51:50.657Z,85.16
2022-08-05T05:52:48.832Z,84.38
2022-08-05T05:53:57.567Z,84.47
2022-08-05T05:54:50.558Z,84.08
2022-08-05T05:55:51.927Z,83.98
2022-08-05T05:56:48.848Z,84.38
2022-08-05T05:57:52.089Z,83.98
2022-08-05T05:58:48.856Z,83.88
2022-08-05T05:59:49.139Z,84.08
2022-08-05T06:00:48.879Z,83.54
2022-08-05T06:01:57.817Z,83.05
2022-08-05T06:02:48.879Z,83.44
2022-08-05T06:04:01.078Z,83.84
2022-08-05T06:04:49.275Z,83.74
2022-08-05T06:05:54.212Z,83.44
2022-08-05T06:06:49.183Z,84.53
2022-08-05T06:08:01.305Z,84.19
2022-08-05T06:08:49.169Z,83.90
2022-08-05T06:09:59.935Z,83.80
2022-08-05T06:10:49.199Z,84.09
2022-08-05T06:11:59.495Z,84.00
2022-08-05T06:12:48.924Z,84.29
2022-08-05T06:13:53.711Z,83.70
2022-08-05T06:14:48.931Z,84.39
2022-08-05T06:16:30.230Z,84.09
2022-08-05T06:16:48.940Z,83.31
2022-08-05T06:17:52.659Z,83.40
2022-08-05T06:18:48.951Z,82.57
2022-08-05T06:19:56.577Z,82.71
2022-08-05T06:20:48.958Z,83.36
2022-08-05T06:21:49.881Z,84.15
2022-08-05T06:22:48.973Z,83.56
2022-08-05T06:23:49.770Z,84.25
2022-08-05T06:24:48.979Z,83.26
2022-08-05T06:26:12.890Z,82.77
2022-08-05T06:26:52.274Z,83.33
2022-08-05T06:28:11.848Z,82.48
2022-08-05T06:28:48.999Z,83.72
2022-08-05T06:30:03.971Z,82.73
2022-08-05T06:30:49.155Z,83.22
2022-08-05T06:31:49.011Z,82.34
2022-08-05T06:32:50.693Z,82.69
2022-08-05T06:34:06.035Z,82.93
2022-08-05T06:34:53.472Z,82.53
2022-08-05T06:36:03.669Z,82.53
2022-08-05T06:36:58.067Z,82.10
2022-08-05T06:37:57.286Z,81.90
2022-08-05T06:38:49.048Z,82.79
2022-08-05T06:39:49.112Z,82.29
2022-08-05T06:40:49.376Z,82.14
2022-08-05T06:41:49.061Z,82.00
2022-08-05T06:42:51.644Z,82.14
2022-08-05T06:43:58.092Z,83.33
2022-08-05T06:44:49.243Z,82.79
2022-08-05T06:46:04.044Z,82.20
2022-08-05T06:46:50.597Z,83.18
2022-08-05T06:48:46.945Z,81.90
2022-08-05T06:48:55.521Z,82.59
2022-08-05T06:50:00.776Z,82.06
2022-08-05T06:50:49.993Z,82.29
2022-08-05T06:51:49.112Z,81.86
2022-08-05T06:52:58.729Z,81.86
2022-08-05T06:53:53.633Z,81.52
2022-08-05T06:54:53.397Z,81.73
2022-08-05T06:55:49.131Z,83.11
2022-08-05T06:56:54.896Z,80.64
2022-08-05T06:57:57.131Z,81.39
2022-08-05T06:58:49.150Z,80.60
2022-08-05T06:59:57.956Z,80.99
2022-08-05T07:00:49.200Z,80.86
2022-08-05T07:01:52.777Z,80.86
2022-08-05T07:02:53.448Z,80.17
2022-08-05T07:03:49.174Z,80.96
2022-08-05T07:04:49.180Z,81.15
2022-08-05T07:05:49.185Z,80.62
2022-08-05T07:06:50.485Z,80.23
2022-08-05T07:07:49.195Z,80.09
2022-08-05T07:08:51.893Z,80.39
2022-08-05T07:09:49.204Z,80.68
2022-08-05T07:10:53.352Z,78.91
2022-08-05T07:11:51.461Z,78.66
2022-08-05T07:12:49.368Z,78.32
2022-08-05T07:13:59.302Z,78.03
2022-08-05T07:14:49.238Z,78.52
2022-08-05T07:16:00.997Z,79.27
2022-08-05T07:17:59.043Z,78.25
2022-08-05T07:18:02.350Z,77.99
2022-08-05T07:18:49.257Z,77.95
2022-08-05T07:20:49.271Z,77.76
2022-08-05T07:22:00.323Z,77.42
2022-08-05T07:22:49.283Z,76.90
2022-08-05T07:23:49.941Z,76.70
2022-08-05T07:24:52.485Z,76.80
2022-08-05T07:25:54.946Z,76.27
2022-08-05T07:26:49.302Z,75.68
2022-08-05T07:27:57.949Z,76.27
2022-08-05T07:28:49.321Z,75.88
2022-08-05T07:30:24.440Z,75.05
2022-08-05T07:30:52.724Z,74.96
2022-08-05T07:31:54.558Z,74.96
2022-08-05T07:32:50.956Z,74.73
2022-08-05T07:33:49.350Z,73.26
2022-08-05T07:34:49.351Z,73.26
2022-08-05T07:36:05.023Z,74.69
2022-08-05T07:36:49.372Z,74.79
2022-08-05T07:37:49.379Z,73.97
2022-08-05T07:38:49.381Z,72.27
2022-08-05T07:40:04.113Z,70.97
2022-08-05T07:40:49.440Z,70.41
2022-08-05T07:42:14.383Z,69.72
2022-08-05T07:42:49.407Z,67.64
2022-08-05T07:43:49.413Z,67.86
2022-08-05T07:44:49.422Z,67.05
2022-08-05T07:45:57.193Z,68.52
2022-08-05T07:46:50.288Z,67.15
2022-08-05T07:47:49.448Z,67.64
2022-08-05T07:49:03.350Z,68.55
2022-08-05T07:49:54.370Z,68.55
2022-08-05T07:50:49.469Z,68.00
2022-08-05T07:51:53.306Z,68.39
2022-08-05T07:52:49.488Z,69.17
2022-08-05T07:53:50.612Z,68.91
2022-08-05T07:54:49.503Z,69.20
2022-08-05T07:56:05.647Z,69.92
2022-08-05T07:57:01.931Z,70.51
2022-08-05T07:57:55.229Z,71.39
2022-08-05T07:58:54.798Z,71.00
2022-08-05T07:59:49.544Z,71.00
2022-08-05T08:00:49.558Z,70.70
2022-08-05T08:01:52.212Z,69.49
2022-08-05T08:03:14.190Z,71.74
2022-08-05T08:03:51.300Z,68.65
2022-08-05T08:04:49.894Z,67.77
2022-08-05T08:05:50.020Z,67.67
2022-08-05T08:06:49.601Z,68.49
2022-08-05T08:07:59.745Z,67.71
2022-08-05T08:08:49.621Z,67.61
2022-08-05T08:09:49.630Z,67.44
2022-08-05T08:10:49.637Z,68.75
2022-08-05T08:11:59.009Z,68.65
2022-08-05T08:12:49.959Z,68.19
2022-08-05T08:14:00.646Z,68.52
2022-08-05T08:14:49.677Z,68.13
2022-08-05T08:16:34.425Z,68.23
2022-08-05T08:16:51.407Z,70.02
2022-08-05T08:17:52.688Z,69.34
2022-08-05T08:18:50.136Z,71.00
2022-08-05T08:20:22.334Z,69.76
2022-08-05T08:21:03.019Z,69.67
2022-08-05T08:21:49.739Z,70.54
2022-08-05T08:22:49.746Z,71.26
2022-08-05T08:24:01.501Z,69.99
2022-08-05T08:24:51.376Z,69.83
2022-08-05T08:25:59.269Z,71.69
2022-08-05T08:26:49.785Z,69.76
2022-08-05T08:27:51.428Z,71.62
2022-08-05T08:28:59.095Z,71.53
2022-08-05T08:30:05.306Z,71.43
2022-08-05T08:30:50.250Z,71.62
2022-08-05T08:31:49.833Z,70.36
2022-08-05T08:32:49.841Z,71.33
2022-08-05T08:33:51.580Z,71.30
2022-08-05T08:34:49.855Z,69.34
2022-08-05T08:35:52.817Z,69.73
2022-08-05T08:36:54.717Z,70.45
2022-08-05T08:37:54.389Z,71.30
2022-08-05T08:38:53.204Z,68.82
2022-08-05T08:39:49.948Z,69.11
2022-08-05T08:40:51.647Z,68.68
2022-08-05T08:41:52.562Z,67.80
2022-08-05T08:42:52.406Z,68.55
2022-08-05T08:45:18.772Z,68.19
2022-08-05T08:45:19.601Z,67.90
2022-08-05T08:45:49.956Z,67.64
2022-08-05T08:46:49.968Z,69.63
2022-08-05T08:48:10.548Z,68.46
2022-08-05T08:49:06.238Z,68.78
2022-08-05T08:50:22.471Z,69.18
2022-08-05T08:51:03.665Z,69.70
2022-08-05T08:52:05.921Z,69.34
2022-08-05T08:52:52.811Z,72.18
2022-08-05T08:53:50.031Z,70.88
2022-08-05T08:54:50.044Z,70.88
2022-08-05T08:56:04.215Z,71.17
2022-08-05T08:56:50.073Z,71.21
2022-08-05T08:57:57.936Z,71.41
2022-08-05T08:58:50.602Z,73.21
2022-08-05T08:59:50.086Z,74.93
2022-08-05T09:00:50.177Z,75.33
2022-08-05T09:01:57.445Z,76.15
2022-08-05T09:02:50.111Z,78.31
2022-08-05T09:03:54.362Z,77.42
2022-08-05T09:05:16.732Z,78.89
2022-08-05T09:06:09.260Z,77.66
2022-08-05T09:06:50.149Z,78.99
2022-08-05T09:07:57.093Z,78.05
2022-08-05T09:08:50.164Z,79.52
2022-08-05T09:09:50.275Z,77.99
2022-08-05T09:10:50.178Z,80.78
2022-08-05T09:11:50.853Z,80.68
2022-08-05T09:12:50.803Z,80.09
2022-08-05T09:14:09.702Z,81.86
2022-08-05T09:14:58.095Z,82.26
2022-08-05T09:15:50.227Z,82.55
2022-08-05T09:16:50.230Z,81.57
2022-08-05T09:17:50.243Z,81.17
2022-08-05T09:18:50.252Z,81.47
2022-08-05T09:20:01.317Z,83.37
2022-08-05T09:20:50.265Z,81.21
2022-08-05T09:22:23.236Z,81.12
2022-08-05T09:22:51.853Z,81.31
2022-08-05T09:23:50.289Z,80.96
2022-08-05T09:24:50.292Z,81.55
2022-08-05T09:26:02.229Z,81.94
2022-08-05T09:26:51.772Z,83.71
2022-08-05T09:28:04.212Z,84.30
2022-08-05T09:28:50.333Z,81.94
2022-08-05T09:29:50.350Z,82.73
2022-08-05T09:30:50.348Z,83.08
2022-08-05T09:32:45.976Z,81.84
2022-08-05T09:32:51.749Z,83.22
2022-08-05T09:33:50.816Z,81.65
2022-08-05T09:34:50.375Z,82.53
2022-08-05T09:35:50.377Z,82.53
2022-08-05T09:36:55.681Z,81.81
2022-08-05T09:38:17.266Z,82.49
2022-08-05T09:38:50.400Z,81.65
2022-08-05T09:39:52.363Z,82.14
2022-08-05T09:40:52.639Z,83.22
2022-08-05T09:41:56.291Z,82.53
2022-08-05T09:42:50.429Z,82.82
2022-08-05T09:43:50.437Z,80.96
2022-08-05T09:44:50.796Z,81.94
2022-08-05T09:46:07.312Z,81.84
2022-08-05T09:46:53.704Z,81.15
2022-08-05T09:47:56.081Z,82.04
2022-08-05T09:49:07.344Z,80.86
2022-08-05T09:50:00.762Z,80.76
2022-08-05T09:50:50.489Z,80.46
2022-08-05T09:51:50.520Z,80.07
2022-08-05T09:52:52.944Z,80.33
2022-08-05T09:53:53.397Z,79.64
2022-08-05T09:54:50.515Z,80.09
2022-08-05T09:55:57.335Z,78.95
2022-08-05T09:56:52.384Z,79.44
2022-08-05T09:57:54.716Z,80.39
2022-08-05T09:58:50.543Z,80.43
2022-08-05T09:59:50.552Z,79.15
2022-08-05T10:00:50.558Z,78.66
2022-08-05T10:01:57.850Z,80.56
2022-08-05T10:02:50.617Z,81.84
2022-08-05T10:03:59.139Z,78.83
2022-08-05T10:04:50.587Z,80.31
2022-08-05T10:05:50.593Z,81.13
2022-08-05T10:06:58.872Z,81.88
2022-08-05T10:08:35.778Z,82.42
2022-08-05T10:08:53.843Z,81.33
2022-08-05T10:09:50.627Z,81.23
2022-08-05T10:10:54.318Z,82.42
2022-08-05T10:11:50.642Z,83.89
2022-08-05T10:12:50.677Z,83.89
2022-08-05T10:13:54.599Z,85.07
2022-08-05T10:14:50.656Z,87.63
2022-08-05T10:15:50.664Z,88.02
2022-08-05T10:16:52.400Z,86.99
2022-08-05T10:17:56.564Z,88.85
2022-08-05T10:18:50.685Z,88.07
2022-08-05T10:20:03.920Z,89.15
2022-08-05T10:20:50.701Z,89.29
2022-08-05T10:21:50.708Z,88.21
2022-08-05T10:22:51.211Z,89.29
2022-08-05T10:24:00.074Z,90.08
2022-08-05T10:24:50.724Z,88.51
2022-08-05T10:25:50.732Z,89.79
2022-08-05T10:26:52.381Z,89.79
2022-08-05T10:28:12.821Z,90.33
2022-08-05T10:28:50.799Z,89.98
2022-08-05T10:30:41.212Z,92.79
2022-08-05T10:32:48.663Z,92.20
2022-08-05T10:32:52.974Z,91.61
2022-08-05T10:33:00.700Z,92.59
2022-08-05T10:33:52.382Z,91.61
2022-08-05T10:34:50.787Z,92.05
2022-08-05T10:35:59.195Z,91.61
2022-08-05T10:36:50.799Z,91.46
2022-08-05T10:37:50.808Z,89.69
2022-08-05T10:38:50.814Z,91.52
2022-08-05T10:39:58.977Z,90.00
2022-08-05T10:40:50.920Z,87.58
2022-08-05T10:41:50.838Z,89.11
2022-08-05T10:42:50.841Z,90.78
2022-08-05T10:43:50.846Z,88.62
2022-08-05T10:44:50.859Z,88.12
2022-08-05T10:45:50.867Z,87.58
2022-08-05T10:46:54.472Z,88.76
2022-08-05T10:48:29.808Z,89.15
2022-08-05T10:48:58.107Z,90.39
2022-08-05T10:50:20.820Z,89.50
2022-08-05T10:50:50.889Z,93.05
2022-08-05T10:51:59.985Z,90.78
2022-08-05T10:52:50.912Z,91.57
2022-08-05T10:53:50.916Z,89.50
2022-08-05T10:54:56.697Z,89.70
2022-08-05T10:56:03.810Z,91.47
2022-08-05T10:56:53.165Z,89.31
2022-08-05T10:57:51.398Z,89.50
2022-08-05T10:58:50.943Z,89.01
2022-08-05T11:00:04.363Z,88.42
2022-08-05T11:00:55.438Z,87.83
2022-08-05T11:01:54.578Z,89.50
2022-08-05T11:02:51.012Z,90.78
2022-08-05T11:03:51.053Z,89.90
2022-08-05T11:04:50.976Z,89.70
2022-08-05T11:05:50.994Z,90.39
2022-08-05T11:06:50.992Z,91.38
2022-08-05T11:08:02.693Z,91.33
2022-08-05T11:08:51.008Z,89.76
2022-08-05T11:09:51.012Z,90.05
2022-08-05T11:11:00.864Z,90.78
2022-08-05T11:11:53.600Z,90.69
2022-08-05T11:12:55.044Z,90.78
2022-08-05T11:13:57.972Z,90.88
2022-08-05T11:15:11.722Z,93.09
2022-08-05T11:16:00.100Z,92.60
2022-08-05T11:16:57.955Z,96.34
2022-08-05T11:17:57.544Z,95.80
2022-08-05T11:18:51.669Z,96.98
2022-08-05T11:20:17.565Z,96.00
2022-08-05T11:20:51.127Z,95.40
2022-08-05T11:21:51.103Z,94.12
2022-08-05T11:22:53.942Z,96.59
2022-08-05T11:24:05.225Z,95.26
2022-08-05T11:25:16.432Z,94.91
2022-08-05T11:26:05.736Z,94.47
2022-08-05T11:26:51.123Z,93.84
2022-08-05T11:28:00.710Z,91.39
2022-08-05T11:28:51.136Z,90.58
2022-08-05T11:29:51.141Z,90.00
2022-08-05T11:30:53.357Z,88.62
2022-08-05T11:31:58.660Z,86.07
2022-08-05T11:32:51.156Z,85.43
2022-08-05T11:33:51.167Z,85.33
2022-08-05T11:34:54.427Z,86.17
2022-08-05T11:36:07.780Z,85.60
2022-08-05T11:36:53.041Z,83.32
2022-08-05T11:38:28.116Z,83.87
2022-08-05T11:38:51.818Z,81.30
2022-08-05T11:39:55.239Z,78.85
2022-08-05T11:40:51.217Z,78.09
2022-08-05T11:42:00.635Z,76.50
2022-08-05T11:42:51.230Z,75.46
2022-08-05T11:44:04.575Z,75.40
2022-08-05T11:44:54.152Z,75.98
2022-08-05T11:46:23.484Z,77.09
2022-08-05T11:47:09.970Z,77.39
2022-08-05T11:47:54.573Z,76.06
2022-08-05T11:48:51.286Z,77.52
2022-08-05T11:49:51.433Z,76.84
2022-08-05T11:50:51.305Z,79.02
2022-08-05T11:51:51.310Z,76.48
2022-08-05T11:52:57.219Z,77.11
2022-08-05T11:53:51.328Z,75.98
2022-08-05T11:54:54.858Z,77.54
2022-08-05T11:55:51.353Z,80.08
2022-08-05T11:56:52.192Z,75.68
2022-08-05T11:58:08.016Z,76.46
2022-08-05T11:58:51.510Z,78.75
2022-08-05T11:59:51.380Z,77.05
2022-08-05T12:00:52.772Z,77.19
2022-08-05T12:01:51.406Z,77.48
2022-08-05T12:02:51.465Z,77.58
2022-08-05T12:03:56.064Z,77.09
2022-08-05T12:04:59.667Z,77.12
2022-08-05T12:05:51.444Z,76.93
2022-08-05T12:06:51.451Z,76.60
2022-08-05T12:08:09.256Z,78.30
2022-08-05T12:08:51.578Z,75.82
2022-08-05T12:09:53.434Z,75.95
2022-08-05T12:10:51.662Z,75.85
2022-08-05T12:11:51.492Z,76.40
2022-08-05T12:12:59.983Z,78.36
2022-08-05T12:13:51.508Z,76.07
2022-08-05T12:14:51.522Z,74.77
2022-08-05T12:15:51.534Z,75.18
2022-08-05T12:16:51.535Z,74.76
2022-08-05T12:18:03.202Z,75.01
2022-08-05T12:18:53.354Z,70.46
2022-08-05T12:20:26.027Z,69.16
2022-08-05T12:20:51.570Z,71.17
2022-08-05T12:21:51.580Z,68.80
2022-08-05T12:22:51.930Z,68.18
2022-08-05T12:23:51.608Z,67.44
2022-08-05T12:24:51.607Z,66.66
2022-08-05T12:25:51.631Z,65.11
2022-08-05T12:26:51.625Z,65.85
2022-08-05T12:27:53.263Z,66.05
2022-08-05T12:28:51.647Z,65.24
2022-08-05T12:29:53.343Z,63.91
2022-08-05T12:30:51.661Z,64.43
2022-08-05T12:31:53.460Z,64.72
2022-08-05T12:32:51.683Z,65.20
2022-08-05T12:33:51.695Z,65.43
2022-08-05T12:34:51.700Z,66.14
2022-08-05T12:35:51.749Z,66.08
2022-08-05T12:36:51.722Z,67.18
2022-08-05T12:37:53.148Z,66.02
2022-08-05T12:38:51.741Z,65.85
2022-08-05T12:39:52.001Z,66.05
2022-08-05T12:40:51.791Z,64.17
2022-08-05T12:41:58.148Z,64.46
2022-08-05T12:42:51.783Z,65.89
2022-08-05T12:43:51.799Z,65.75
2022-08-05T12:44:51.801Z,62.43
2022-08-05T12:45:51.815Z,62.85
2022-08-05T12:46:51.823Z,61.46
2022-08-05T12:48:01.638Z,62.55
2022-08-05T12:48:51.843Z,61.58
2022-08-05T12:50:03.483Z,62.26
2022-08-05T12:50:51.859Z,61.49
2022-08-05T12:52:14.235Z,62.65
2022-08-05T12:52:51.881Z,63.04
2022-08-05T12:53:55.671Z,63.78
2022-08-05T12:54:51.903Z,65.82
2022-08-05T12:55:51.914Z,64.37
2022-08-05T12:56:51.919Z,63.20
2022-08-05T12:58:49.053Z,62.55
2022-08-05T12:58:55.708Z,64.53
2022-08-05T13:01:57.003Z,64.72
2022-08-05T13:02:01.159Z,64.43
2022-08-05T13:02:03.769Z,65.20
2022-08-05T13:02:55.586Z,66.11
2022-08-05T13:03:51.990Z,63.88